Hollister, Oklahoma
Current Conditions -  °F | °C
As of 12:53 PM on Friday 28 Nov 2014 (Local Time) from KFDR Reporting Station
Clear Clear  
Wind Chill: 66°   Ceiling: Unl
Heat Index: 66°   Visibility: 10mi
Dew Point: 41°   Wind: 20mph
Humidity: 40%   Direction: 200°SSW
Pressure: 29.95"   Gusts: NA
Location:  34.34°N, 98.87°W
Report Text: KFDR 281853Z AUTO 20017KT 10SM CLR 19/05 A2995 RMK AO2 SLP139 T01890050 $
Loading
Personal Weather Stations






























Interactive Weather Map New forecast layout! Learn more

10-Day Weather Forecast

Advertisements
Track Severe Weather on mobile